sensor_id;sensor_type;location;lat;lon;timestamp;pressure;altitude;pressure_sealevel;temperature;humidity
73267;BME280;61495;53.400;7.608;2023-05-24T00:00:28;102232.72;;;8.77;76.37
73267;BME280;61495;53.400;7.608;2023-05-24T00:02:59;102224.34;;;8.72;76.88
73267;BME280;61495;53.400;7.608;2023-05-24T00:05:24;102230.38;;;8.74;76.88
73267;BME280;61495;53.400;7.608;2023-05-24T00:07:49;102223.69;;;8.70;77.57
73267;BME280;61495;53.400;7.608;2023-05-24T00:10:15;102236.03;;;8.71;77.26
73267;BME280;61495;53.400;7.608;2023-05-24T00:12:40;102230.88;;;8.69;77.93
73267;BME280;61495;53.400;7.608;2023-05-24T00:15:06;102231.53;;;8.71;77.72
73267;BME280;61495;53.400;7.608;2023-05-24T00:17:32;102221.81;;;8.70;78.14
73267;BME280;61495;53.400;7.608;2023-05-24T00:19:59;102220.19;;;8.69;78.21
73267;BME280;61495;53.400;7.608;2023-05-24T00:22:24;102219.34;;;8.69;78.48
73267;BME280;61495;53.400;7.608;2023-05-24T00:24:50;102211.63;;;8.66;78.49
73267;BME280;61495;53.400;7.608;2023-05-24T00:27:15;102232.69;;;8.69;78.85
73267;BME280;61495;53.400;7.608;2023-05-24T00:29:41;102232.50;;;8.70;78.66
73267;BME280;61495;53.400;7.608;2023-05-24T00:32:11;102219.34;;;8.69;78.98
73267;BME280;61495;53.400;7.608;2023-05-24T00:34:36;102229.69;;;8.72;78.80
73267;BME280;61495;53.400;7.608;2023-05-24T00:37:02;102226.38;;;8.70;79.19
73267;BME280;61495;53.400;7.608;2023-05-24T00:39:27;102221.03;;;8.70;78.49
73267;BME280;61495;53.400;7.608;2023-05-24T00:41:52;102214.50;;;8.72;78.53
73267;BME280;61495;53.400;7.608;2023-05-24T00:44:18;102194.78;;;8.65;78.57
73267;BME280;61495;53.400;7.608;2023-05-24T00:46:43;102209.31;;;8.71;78.92
73267;BME280;61495;53.400;7.608;2023-05-24T00:49:09;102197.13;;;8.68;78.65
73267;BME280;61495;53.400;7.608;2023-05-24T00:51:35;102193.59;;;8.68;78.70
73267;BME280;61495;53.400;7.608;2023-05-24T00:54:01;102201.28;;;8.71;78.71
73267;BME280;61495;53.400;7.608;2023-05-24T00:56:27;102209.16;;;8.72;79.21
73267;BME280;61495;53.400;7.608;2023-05-24T00:58:52;102204.66;;;8.73;79.06
73267;BME280;61495;53.400;7.608;2023-05-24T01:01:21;102206.66;;;8.71;78.99
73267;BME280;61495;53.400;7.608;2023-05-24T01:03:52;102207.47;;;8.71;79.16
73267;BME280;61495;53.400;7.608;2023-05-24T01:06:18;102203.81;;;8.72;79.36
73267;BME280;61495;53.400;7.608;2023-05-24T01:09:01;102196.78;;;8.71;79.08
73267;BME280;61495;53.400;7.608;2023-05-24T01:14:24;102200.97;;;8.74;79.90
73267;BME280;61495;53.400;7.608;2023-05-24T01:19:42;102193.47;;;8.69;80.43
73267;BME280;61495;53.400;7.608;2023-05-24T01:25:07;102193.97;;;8.73;80.02
73267;BME280;61495;53.400;7.608;2023-05-24T01:27:37;102181.94;;;8.69;79.98
73267;BME280;61495;53.400;7.608;2023-05-24T01:30:03;102194.66;;;8.75;79.85
73267;BME280;61495;53.400;7.608;2023-05-24T01:32:29;102191.13;;;8.74;80.15
73267;BME280;61495;53.400;7.608;2023-05-24T01:34:55;102197.31;;;8.75;80.17
73267;BME280;61495;53.400;7.608;2023-05-24T01:37:21;102197.31;;;8.75;80.08
73267;BME280;61495;53.400;7.608;2023-05-24T01:40:00;102190.28;;;8.74;80.30
73267;BME280;61495;53.400;7.608;2023-05-24T01:42:51;102193.97;;;8.73;80.20
73267;BME280;61495;53.400;7.608;2023-05-24T01:49:16;102202.34;;;8.78;80.58
73267;BME280;61495;53.400;7.608;2023-05-24T01:51:33;102200.50;;;8.78;80.55
73267;BME280;61495;53.400;7.608;2023-05-24T01:54:19;102189.44;;;8.73;80.78
73267;BME280;61495;53.400;7.608;2023-05-24T01:57:06;102189.81;;;8.78;80.03
73267;BME280;61495;53.400;7.608;2023-05-24T01:59:53;102186.63;;;8.75;79.78
73267;BME280;61495;53.400;7.608;2023-05-24T02:02:38;102181.28;;;8.75;80.42
73267;BME280;61495;53.400;7.608;2023-05-24T02:05:04;102181.28;;;8.75;79.87
73267;BME280;61495;53.400;7.608;2023-05-24T02:07:29;102181.28;;;8.75;79.97
73267;BME280;61495;53.400;7.608;2023-05-24T02:09:54;102168.91;;;8.74;80.16
73267;BME280;61495;53.400;7.608;2023-05-24T02:12:20;102175.09;;;8.74;80.33
73267;BME280;61495;53.400;7.608;2023-05-24T02:14:45;102179.28;;;8.77;80.49
73267;BME280;61495;53.400;7.608;2023-05-24T02:17:10;102177.63;;;8.76;80.32
73267;BME280;61495;53.400;7.608;2023-05-24T02:19:36;102167.25;;;8.73;80.32
73267;BME280;61495;53.400;7.608;2023-05-24T02:22:01;102177.63;;;8.76;80.46
73267;BME280;61495;53.400;7.608;2023-05-24T02:24:27;102177.78;;;8.74;80.49
73267;BME280;61495;53.400;7.608;2023-05-24T02:26:53;102186.31;;;8.78;80.32
73267;BME280;61495;53.400;7.608;2023-05-24T02:29:20;102182.97;;;8.76;80.49
73267;BME280;61495;53.400;7.608;2023-05-24T02:31:46;102182.28;;;8.74;80.96
73267;BME280;61495;53.400;7.608;2023-05-24T02:34:24;102182.13;;;8.75;80.55
73267;BME280;61495;53.400;7.608;2023-05-24T02:36:50;102186.63;;;8.75;80.42
73267;BME280;61495;53.400;7.608;2023-05-24T02:39:16;102183.13;;;8.74;80.79
73267;BME280;61495;53.400;7.608;2023-05-24T02:41:41;102186.63;;;8.75;80.44
73267;BME280;61495;53.400;7.608;2023-05-24T02:44:07;102174.75;;;8.69;80.63
73267;BME280;61495;53.400;7.608;2023-05-24T02:46:32;102179.94;;;8.71;80.41
73267;BME280;61495;53.400;7.608;2023-05-24T02:48:58;102189.44;;;8.73;80.20
73267;BME280;61495;53.400;7.608;2023-05-24T02:51:23;102180.94;;;8.70;80.34
73267;BME280;61495;53.400;7.608;2023-05-24T02:53:49;102177.56;;;8.68;80.74
73267;BME280;61495;53.400;7.608;2023-05-24T02:56:15;102174.75;;;8.69;80.69
73267;BME280;61495;53.400;7.608;2023-05-24T02:58:43;102170.72;;;8.65;81.08
73267;BME280;61495;53.400;7.608;2023-05-24T03:01:10;102173.25;;;8.67;80.47
73267;BME280;61495;53.400;7.608;2023-05-24T03:03:44;102172.72;;;8.63;81.80
73267;BME280;61495;53.400;7.608;2023-05-24T03:06:10;102178.41;;;8.68;81.56
73267;BME280;61495;53.400;7.608;2023-05-24T03:08:38;102174.91;;;8.68;80.69
73267;BME280;61495;53.400;7.608;2023-05-24T03:11:03;102162.56;;;8.67;81.52
73267;BME280;61495;53.400;7.608;2023-05-24T03:13:29;102157.22;;;8.67;82.09
73267;BME280;61495;53.400;7.608;2023-05-24T03:15:54;102151.19;;;8.65;81.45
73267;BME280;61495;53.400;7.608;2023-05-24T03:18:20;102151.03;;;8.66;81.15
73267;BME280;61495;53.400;7.608;2023-05-24T03:20:45;102157.22;;;8.67;81.71
73267;BME280;61495;53.400;7.608;2023-05-24T03:23:11;102160.03;;;8.65;81.06
73267;BME280;61495;53.400;7.608;2023-05-24T03:25:36;102159.19;;;8.65;81.34
73267;BME280;61495;53.400;7.608;2023-05-24T03:28:02;102160.88;;;8.66;81.47
73267;BME280;61495;53.400;7.608;2023-05-24T03:30:27;102157.03;;;8.68;81.86
73267;BME280;61495;53.400;7.608;2023-05-24T03:33:05;102154.22;;;8.70;81.67
73267;BME280;61495;53.400;7.608;2023-05-24T03:35:30;102163.91;;;8.71;82.39
73267;BME280;61495;53.400;7.608;2023-05-24T03:37:56;102168.91;;;8.74;81.71
73267;BME280;61495;53.400;7.608;2023-05-24T03:40:21;102162.72;;;8.73;82.57
73267;BME280;61495;53.400;7.608;2023-05-24T03:42:46;102165.25;;;8.75;83.72
73267;BME280;61495;53.400;7.608;2023-05-24T03:45:12;102171.25;;;8.77;82.73
73267;BME280;61495;53.400;7.608;2023-05-24T03:47:37;102170.78;;;8.81;82.45
73267;BME280;61495;53.400;7.608;2023-05-24T03:50:03;102177.13;;;8.80;81.79
73267;BME280;61495;53.400;7.608;2023-05-24T03:52:28;102179.28;;;8.85;83.62
73267;BME280;61495;53.400;7.608;2023-05-24T03:54:53;102178.31;;;8.86;82.00
73267;BME280;61495;53.400;7.608;2023-05-24T03:57:19;102183.31;;;8.89;82.26
73267;BME280;61495;53.400;7.608;2023-05-24T03:59:44;102171.66;;;8.90;83.46
73267;BME280;61495;53.400;7.608;2023-05-24T04:02:22;102175.66;;;8.94;83.41
73267;BME280;61495;53.400;7.608;2023-05-24T04:04:48;102163.31;;;8.93;83.24
73267;BME280;61495;53.400;7.608;2023-05-24T04:07:13;102169.66;;;9.00;83.15
73267;BME280;61495;53.400;7.608;2023-05-24T04:09:40;102171.34;;;9.01;83.10
73267;BME280;61495;53.400;7.608;2023-05-24T04:12:05;102177.34;;;9.03;81.88
73267;BME280;61495;53.400;7.608;2023-05-24T04:14:31;102168.00;;;8.99;83.04
73267;BME280;61495;53.400;7.608;2023-05-24T04:16:56;102173.69;;;9.04;83.17
73267;BME280;61495;53.400;7.608;2023-05-24T04:19:22;102176.03;;;9.07;81.82
73267;BME280;61495;53.400;7.608;2023-05-24T04:21:48;102174.00;;;9.09;82.71
73267;BME280;61495;53.400;7.608;2023-05-24T04:24:14;102167.81;;;9.09;81.69
73267;BME280;61495;53.400;7.608;2023-05-24T04:26:40;102162.00;;;9.05;82.11
73267;BME280;61495;53.400;7.608;2023-05-24T04:29:05;102177.72;;;9.16;83.27
73267;BME280;61495;53.400;7.608;2023-05-24T04:31:31;102173.22;;;9.17;83.02
73267;BME280;61495;53.400;7.608;2023-05-24T04:34:08;102177.53;;;9.18;83.74
73267;BME280;61495;53.400;7.608;2023-05-24T04:36:33;102159.00;;;9.16;82.93
73267;BME280;61495;53.400;7.608;2023-05-24T04:38:59;102172.38;;;9.24;83.31
73267;BME280;61495;53.400;7.608;2023-05-24T04:41:27;102175.03;;;9.24;83.79
73267;BME280;61495;53.400;7.608;2023-05-24T04:43:55;102182.41;;;9.30;83.29
73267;BME280;61495;53.400;7.608;2023-05-24T04:46:21;102178.75;;;9.31;83.24
73267;BME280;61495;53.400;7.608;2023-05-24T04:48:47;102173.72;;;9.36;83.95
73267;BME280;61495;53.400;7.608;2023-05-24T04:51:12;102168.22;;;9.38;83.27
73267;BME280;61495;53.400;7.608;2023-05-24T04:53:37;102174.75;;;9.43;84.12
73267;BME280;61495;53.400;7.608;2023-05-24T04:56:03;102166.22;;;9.40;85.15
73267;BME280;61495;53.400;7.608;2023-05-24T04:58:28;102174.41;;;9.46;83.97
73267;BME280;61495;53.400;7.608;2023-05-24T05:00:53;102188.78;;;9.54;84.41
73267;BME280;61495;53.400;7.608;2023-05-24T05:03:19;102184.44;;;9.53;84.91
73267;BME280;61495;53.400;7.608;2023-05-24T05:05:44;102189.78;;;9.61;85.05
73267;BME280;61495;53.400;7.608;2023-05-24T05:08:10;102201.16;;;9.63;86.30
73267;BME280;61495;53.400;7.608;2023-05-24T05:10:35;102192.97;;;9.64;85.61
73267;BME280;61495;53.400;7.608;2023-05-24T05:13:01;102193.28;;;9.69;84.91
73267;BME280;61495;53.400;7.608;2023-05-24T05:15:27;102200.50;;;9.77;85.92
73267;BME280;61495;53.400;7.608;2023-05-24T05:17:52;102195.97;;;9.77;85.88
73267;BME280;61495;53.400;7.608;2023-05-24T05:20:18;102205.84;;;9.85;86.19
73267;BME280;61495;53.400;7.608;2023-05-24T05:22:49;102200.66;;;9.83;85.71
73267;BME280;61495;53.400;7.608;2023-05-24T05:25:15;102204.16;;;9.92;85.96
73267;BME280;61495;53.400;7.608;2023-05-24T05:27:40;102204.84;;;9.94;84.50
73267;BME280;61495;53.400;7.608;2023-05-24T05:30:06;102203.47;;;9.98;85.97
73267;BME280;61495;53.400;7.608;2023-05-24T05:32:32;102207.84;;;9.99;84.96
73267;BME280;61495;53.400;7.608;2023-05-24T05:34:58;102204.16;;;10.00;84.57
73267;BME280;61495;53.400;7.608;2023-05-24T05:37:23;102213.69;;;10.02;83.84
73267;BME280;61495;53.400;7.608;2023-05-24T05:39:49;102211.84;;;10.03;84.19
73267;BME280;61495;53.400;7.608;2023-05-24T05:42:14;102193.25;;;10.01;84.57
73267;BME280;61495;53.400;7.608;2023-05-24T05:44:39;102198.28;;;10.04;84.07
73267;BME280;61495;53.400;7.608;2023-05-24T05:47:05;102206.63;;;10.10;84.12
73267;BME280;61495;53.400;7.608;2023-05-24T05:49:32;102192.78;;;10.06;83.11
73267;BME280;61495;53.400;7.608;2023-05-24T05:52:01;102215.19;;;10.13;83.92
73267;BME280;61495;53.400;7.608;2023-05-24T05:54:27;102213.53;;;10.20;83.95
73267;BME280;61495;53.400;7.608;2023-05-24T05:56:53;102215.22;;;10.21;83.84
73267;BME280;61495;53.400;7.608;2023-05-24T05:59:18;102216.72;;;10.24;84.84
73267;BME280;61495;53.400;7.608;2023-05-24T06:01:44;102216.19;;;10.28;84.11
73267;BME280;61495;53.400;7.608;2023-05-24T06:04:11;102217.88;;;10.29;83.99
73267;BME280;61495;53.400;7.608;2023-05-24T06:06:37;102222.03;;;10.32;84.14
73267;BME280;61495;53.400;7.608;2023-05-24T06:09:02;102222.53;;;10.35;83.43
73267;BME280;61495;53.400;7.608;2023-05-24T06:11:27;102220.00;;;10.34;83.76
73267;BME280;61495;53.400;7.608;2023-05-24T06:13:53;102219.19;;;10.33;83.47
73267;BME280;61495;53.400;7.608;2023-05-24T06:16:19;102223.50;;;10.42;83.66
73267;BME280;61495;53.400;7.608;2023-05-24T06:18:45;102225.84;;;10.45;84.04
73267;BME280;61495;53.400;7.608;2023-05-24T06:21:14;102218.78;;;10.52;83.49
73267;BME280;61495;53.400;7.608;2023-05-24T06:23:40;102225.50;;;10.56;83.57
73267;BME280;61495;53.400;7.608;2023-05-24T06:26:05;102222.97;;;10.55;83.29
73267;BME280;61495;53.400;7.608;2023-05-24T06:28:37;102220.78;;;10.58;83.17
73267;BME280;61495;53.400;7.608;2023-05-24T06:31:03;102212.78;;;10.50;83.24
73267;BME280;61495;53.400;7.608;2023-05-24T06:33:41;102231.16;;;10.62;83.69
73267;BME280;61495;53.400;7.608;2023-05-24T06:36:07;102244.72;;;10.68;83.76
73267;BME280;61495;53.400;7.608;2023-05-24T06:38:32;102236.84;;;10.67;83.51
73267;BME280;61495;53.400;7.608;2023-05-24T06:40:58;102241.84;;;10.70;83.04
73267;BME280;61495;53.400;7.608;2023-05-24T06:43:23;102243.53;;;10.71;82.86
73267;BME280;61495;53.400;7.608;2023-05-24T06:45:49;102249.53;;;10.73;82.58
73267;BME280;61495;53.400;7.608;2023-05-24T06:48:14;102241.84;;;10.70;82.93
73267;BME280;61495;53.400;7.608;2023-05-24T06:50:39;102251.88;;;10.76;82.46
73267;BME280;61495;53.400;7.608;2023-05-24T06:53:06;102254.91;;;10.81;82.25
73267;BME280;61495;53.400;7.608;2023-05-24T06:55:32;102268.47;;;10.79;81.66
73267;BME280;61495;53.400;7.608;2023-05-24T06:57:57;102263.41;;;10.84;82.11
73267;BME280;61495;53.400;7.608;2023-05-24T07:00:22;102270.25;;;10.87;81.58
73267;BME280;61495;53.400;7.608;2023-05-24T07:02:48;102276.31;;;10.89;81.20
73267;BME280;61495;53.400;7.608;2023-05-24T07:05:13;102260.91;;;10.83;81.40
73267;BME280;61495;53.400;7.608;2023-05-24T07:07:40;102272.25;;;10.93;80.85
73267;BME280;61495;53.400;7.608;2023-05-24T07:10:07;102275.91;;;11.00;80.73
73267;BME280;61495;53.400;7.608;2023-05-24T07:12:33;102272.22;;;11.01;80.39
73267;BME280;61495;53.400;7.608;2023-05-24T07:14:58;102264.84;;;11.03;80.53
73267;BME280;61495;53.400;7.608;2023-05-24T07:17:24;102278.56;;;11.08;80.20
73267;BME280;61495;53.400;7.608;2023-05-24T07:19:49;102271.84;;;11.12;79.27
73267;BME280;61495;53.400;7.608;2023-05-24T07:22:15;102280.88;;;11.19;79.29
73267;BME280;61495;53.400;7.608;2023-05-24T07:24:40;102267.13;;;11.14;78.36
73267;BME280;61495;53.400;7.608;2023-05-24T07:27:06;102278.50;;;11.24;78.84
73267;BME280;61495;53.400;7.608;2023-05-24T07:29:31;102273.13;;;11.24;78.41
73267;BME280;61495;53.400;7.608;2023-05-24T07:31:57;102282.16;;;11.31;78.28
73267;BME280;61495;53.400;7.608;2023-05-24T07:34:26;102297.84;;;11.42;78.15
73267;BME280;61495;53.400;7.608;2023-05-24T07:36:54;102287.47;;;11.39;77.11
73267;BME280;61495;53.400;7.608;2023-05-24T07:39:19;102288.75;;;11.43;77.91
73267;BME280;61495;53.400;7.608;2023-05-24T07:41:44;102296.09;;;11.49;78.04
73267;BME280;61495;53.400;7.608;2023-05-24T07:44:11;102295.41;;;11.55;78.71
73267;BME280;61495;53.400;7.608;2023-05-24T07:46:37;102291.19;;;11.61;78.82
73267;BME280;61495;53.400;7.608;2023-05-24T07:49:02;102286.28;;;11.73;77.92
73267;BME280;61495;53.400;7.608;2023-05-24T07:51:28;102291.59;;;11.81;77.41
73267;BME280;61495;53.400;7.608;2023-05-24T07:53:53;102290.38;;;11.83;76.68
73267;BME280;61495;53.400;7.608;2023-05-24T07:56:18;102296.81;;;11.97;78.09
73267;BME280;61495;53.400;7.608;2023-05-24T07:58:44;102298.78;;;12.03;77.77
73267;BME280;61495;53.400;7.608;2023-05-24T08:01:11;102290.16;;;11.93;76.42
73267;BME280;61495;53.400;7.608;2023-05-24T08:03:37;102297.78;;;12.04;76.33
73267;BME280;61495;53.400;7.608;2023-05-24T08:06:03;102302.78;;;12.07;76.74
73267;BME280;61495;53.400;7.608;2023-05-24T08:08:29;102302.44;;;12.10;76.56
73267;BME280;61495;53.400;7.608;2023-05-24T08:10:54;102299.66;;;12.18;76.50
73267;BME280;61495;53.400;7.608;2023-05-24T08:13:20;102287.47;;;12.30;77.30
73267;BME280;61495;53.400;7.608;2023-05-24T08:15:45;102288.41;;;12.37;76.67
73267;BME280;61495;53.400;7.608;2023-05-24T08:18:10;102292.59;;;12.54;77.42
73267;BME280;61495;53.400;7.608;2023-05-24T08:20:36;102296.72;;;12.65;76.74
73267;BME280;61495;53.400;7.608;2023-05-24T08:23:01;102294.09;;;12.57;75.50
73267;BME280;61495;53.400;7.608;2023-05-24T08:25:27;102295.88;;;12.64;74.22
73267;BME280;61495;53.400;7.608;2023-05-24T08:27:52;102288.06;;;12.69;75.87
73267;BME280;61495;53.400;7.608;2023-05-24T08:30:17;102302.09;;;12.79;75.31
73267;BME280;61495;53.400;7.608;2023-05-24T08:32:59;102303.28;;;12.92;74.89
73267;BME280;61495;53.400;7.608;2023-05-24T08:35:24;102301.13;;;13.02;75.83
73267;BME280;61495;53.400;7.608;2023-05-24T08:37:50;102297.53;;;13.24;76.41
73267;BME280;61495;53.400;7.608;2023-05-24T08:40:15;102296.78;;;13.30;74.51
73267;BME280;61495;53.400;7.608;2023-05-24T08:42:41;102288.03;;;13.64;75.73
73267;BME280;61495;53.400;7.608;2023-05-24T08:45:08;102291.06;;;13.97;74.47
73267;BME280;61495;53.400;7.608;2023-05-24T08:47:35;102288.59;;;14.02;72.85
73267;BME280;61495;53.400;7.608;2023-05-24T08:50:02;102287.72;;;13.95;73.04
73267;BME280;61495;53.400;7.608;2023-05-24T08:52:28;102293.50;;;14.13;72.96
73267;BME280;61495;53.400;7.608;2023-05-24T08:54:56;102301.59;;;14.13;71.92
73267;BME280;61495;53.400;7.608;2023-05-24T08:57:23;102286.97;;;14.01;70.79
73267;BME280;61495;53.400;7.608;2023-05-24T08:59:51;102303.50;;;13.98;70.42
73267;BME280;61495;53.400;7.608;2023-05-24T09:02:20;102314.22;;;14.12;71.22
73267;BME280;61495;53.400;7.608;2023-05-24T09:04:47;102314.53;;;14.24;71.59
73267;BME280;61495;53.400;7.608;2023-05-24T09:07:15;102316.72;;;14.35;70.71
73267;BME280;61495;53.400;7.608;2023-05-24T09:09:49;102309.38;;;14.29;70.46
73267;BME280;61495;53.400;7.608;2023-05-24T09:12:19;102322.00;;;14.43;71.00
73267;BME280;61495;53.400;7.608;2023-05-24T09:14:46;102327.84;;;14.53;70.90
73267;BME280;61495;53.400;7.608;2023-05-24T09:17:12;102322.69;;;14.58;70.09
73267;BME280;61495;53.400;7.608;2023-05-24T09:19:44;102314.72;;;14.71;71.36
73267;BME280;61495;53.400;7.608;2023-05-24T09:22:13;102317.25;;;15.14;72.16
73267;BME280;61495;53.400;7.608;2023-05-24T09:24:42;102311.72;;;15.35;70.57
73267;BME280;61495;53.400;7.608;2023-05-24T09:27:08;102319.13;;;15.20;67.75
73267;BME280;61495;53.400;7.608;2023-05-24T09:29:36;102317.13;;;15.35;68.02
73267;BME280;61495;53.400;7.608;2023-05-24T09:32:02;102330.53;;;15.63;68.68
73267;BME280;61495;53.400;7.608;2023-05-24T09:34:38;102311.03;;;15.67;66.76
73267;BME280;61495;53.400;7.608;2023-05-24T09:37:04;102321.44;;;15.70;65.73
73267;BME280;61495;53.400;7.608;2023-05-24T09:39:31;102318.97;;;15.82;67.52
73267;BME280;61495;53.400;7.608;2023-05-24T09:41:56;102323.13;;;15.84;67.01
73267;BME280;61495;53.400;7.608;2023-05-24T09:44:25;102327.09;;;16.01;66.41
73267;BME280;61495;53.400;7.608;2023-05-24T09:46:53;102319.84;;;16.15;66.91
73267;BME280;61495;53.400;7.608;2023-05-24T09:49:22;102330.66;;;16.28;66.93
73267;BME280;61495;53.400;7.608;2023-05-24T09:51:47;102335.22;;;16.28;66.73
73267;BME280;61495;53.400;7.608;2023-05-24T09:54:13;102326.69;;;16.31;66.86
73267;BME280;61495;53.400;7.608;2023-05-24T09:56:39;102329.41;;;16.24;67.03
73267;BME280;61495;53.400;7.608;2023-05-24T09:59:07;102340.03;;;16.32;66.21
73267;BME280;61495;53.400;7.608;2023-05-24T10:01:34;102328.56;;;16.24;66.33
73267;BME280;61495;53.400;7.608;2023-05-24T10:04:00;102337.28;;;16.12;65.51
73267;BME280;61495;53.400;7.608;2023-05-24T10:06:27;102341.47;;;16.15;66.03
73267;BME280;61495;53.400;7.608;2023-05-24T10:08:54;102344.59;;;16.12;66.36
73267;BME280;61495;53.400;7.608;2023-05-24T10:11:20;102340.59;;;16.01;66.17
73267;BME280;61495;53.400;7.608;2023-05-24T10:13:47;102342.91;;;15.91;64.63
73267;BME280;61495;53.400;7.608;2023-05-24T10:16:14;102337.25;;;15.86;65.14
73267;BME280;61495;53.400;7.608;2023-05-24T10:18:39;102348.44;;;15.77;65.78
73267;BME280;61495;53.400;7.608;2023-05-24T10:21:05;102338.88;;;15.74;65.03
73267;BME280;61495;53.400;7.608;2023-05-24T10:23:37;102345.75;;;15.70;65.30
73267;BME280;61495;53.400;7.608;2023-05-24T10:26:05;102347.63;;;15.70;65.62
73267;BME280;61495;53.400;7.608;2023-05-24T10:28:33;102345.09;;;15.68;65.46
73267;BME280;61495;53.400;7.608;2023-05-24T10:31:09;102349.72;;;15.81;65.88
73267;BME280;61495;53.400;7.608;2023-05-24T10:33:35;102358.88;;;15.86;67.08
73267;BME280;61495;53.400;7.608;2023-05-24T10:36:06;102347.84;;;15.81;65.86
73267;BME280;61495;53.400;7.608;2023-05-24T10:38:34;102335.97;;;15.69;65.39
73267;BME280;61495;53.400;7.608;2023-05-24T10:41:01;102354.69;;;15.71;66.23
73267;BME280;61495;53.400;7.608;2023-05-24T10:43:26;102344.69;;;15.71;65.80
73267;BME280;61495;53.400;7.608;2023-05-24T10:45:52;102353.84;;;15.64;64.98
73267;BME280;61495;53.400;7.608;2023-05-24T10:50:49;102351.00;;;15.91;66.54
73267;BME280;61495;53.400;7.608;2023-05-24T10:53:22;102330.63;;;16.02;66.34
73267;BME280;61495;53.400;7.608;2023-05-24T10:56:01;102348.09;;;16.12;65.48
73267;BME280;61495;53.400;7.608;2023-05-24T11:00:59;102353.50;;;16.12;66.68
73267;BME280;61495;53.400;7.608;2023-05-24T11:03:34;102347.06;;;16.13;65.83
73267;BME280;61495;53.400;7.608;2023-05-24T11:06:00;102348.09;;;16.12;66.24
73267;BME280;61495;53.400;7.608;2023-05-24T11:08:33;102352.91;;;16.24;65.71
73267;BME280;61495;53.400;7.608;2023-05-24T11:13:31;102342.72;;;16.26;66.55
73267;BME280;61495;53.400;7.608;2023-05-24T11:15:58;102343.53;;;16.20;65.76
73267;BME280;61495;53.400;7.608;2023-05-24T11:18:24;102350.66;;;16.27;65.38
73267;BME280;61495;53.400;7.608;2023-05-24T11:20:50;102357.28;;;16.38;65.27
73267;BME280;61495;53.400;7.608;2023-05-24T11:23:16;102353.13;;;16.29;65.09
73267;BME280;61495;53.400;7.608;2023-05-24T11:25:42;102348.97;;;16.26;64.88
73267;BME280;61495;53.400;7.608;2023-05-24T11:28:09;102359.38;;;16.29;65.07
73267;BME280;61495;53.400;7.608;2023-05-24T11:30:41;102361.84;;;16.31;65.61
73267;BME280;61495;53.400;7.608;2023-05-24T11:33:20;102363.94;;;16.29;64.72
73267;BME280;61495;53.400;7.608;2023-05-24T11:35:53;102345.22;;;16.21;64.59
73267;BME280;61495;53.400;7.608;2023-05-24T11:38:20;102363.31;;;16.33;65.11
73267;BME280;61495;53.400;7.608;2023-05-24T11:40:47;102366.00;;;16.33;64.84
73267;BME280;61495;53.400;7.608;2023-05-24T11:43:19;102369.34;;;16.29;63.63
73267;BME280;61495;53.400;7.608;2023-05-24T11:45:48;102377.69;;;16.21;64.20
73267;BME280;61495;53.400;7.608;2023-05-24T11:48:15;102375.16;;;16.12;64.19
73267;BME280;61495;53.400;7.608;2023-05-24T11:50:43;102376.19;;;16.11;64.42
73267;BME280;61495;53.400;7.608;2023-05-24T11:53:10;102369.94;;;16.04;65.15
73267;BME280;61495;53.400;7.608;2023-05-24T11:55:36;102371.81;;;16.04;64.71
73267;BME280;61495;53.400;7.608;2023-05-24T11:58:05;102383.22;;;15.93;63.92
73267;BME280;61495;53.400;7.608;2023-05-24T12:00:32;102372.59;;;15.85;63.57
73267;BME280;61495;53.400;7.608;2023-05-24T12:03:01;102361.81;;;15.91;64.00
73267;BME280;61495;53.400;7.608;2023-05-24T12:05:31;102378.88;;;15.98;64.01
73267;BME280;61495;53.400;7.608;2023-05-24T12:08:04;102370.56;;;16.00;65.46
73267;BME280;61495;53.400;7.608;2023-05-24T12:10:34;102379.72;;;16.05;65.78
73267;BME280;61495;53.400;7.608;2023-05-24T12:13:00;102378.44;;;15.95;63.49
73267;BME280;61495;53.400;7.608;2023-05-24T12:15:26;102378.44;;;15.88;64.08
73267;BME280;61495;53.400;7.608;2023-05-24T12:17:52;102373.47;;;15.98;63.85
73267;BME280;61495;53.400;7.608;2023-05-24T12:20:17;102367.03;;;15.99;64.41
73267;BME280;61495;53.400;7.608;2023-05-24T12:22:53;102370.56;;;16.06;65.25
73267;BME280;61495;53.400;7.608;2023-05-24T12:25:20;102380.56;;;16.12;64.32
73267;BME280;61495;53.400;7.608;2023-05-24T12:27:55;102372.44;;;16.12;64.11
73267;BME280;61495;53.400;7.608;2023-05-24T12:30:30;102381.38;;;16.06;64.41
73267;BME280;61495;53.400;7.608;2023-05-24T12:33:02;102386.38;;;16.16;65.09
73267;BME280;61495;53.400;7.608;2023-05-24T12:35:27;102391.38;;;16.12;64.07
73267;BME280;61495;53.400;7.608;2023-05-24T12:37:57;102393.03;;;16.13;63.92
73267;BME280;61495;53.400;7.608;2023-05-24T12:40:24;102390.75;;;16.10;63.42
73267;BME280;61495;53.400;7.608;2023-05-24T12:42:53;102401.75;;;16.02;63.24
73267;BME280;61495;53.400;7.608;2023-05-24T12:45:23;102395.34;;;16.17;63.90
73267;BME280;61495;53.400;7.608;2023-05-24T12:47:54;102402.22;;;16.19;63.66
73267;BME280;61495;53.400;7.608;2023-05-24T12:50:21;102392.66;;;16.30;63.96
73267;BME280;61495;53.400;7.608;2023-05-24T12:52:47;102397.88;;;16.38;64.67
73267;BME280;61495;53.400;7.608;2023-05-24T12:55:18;102396.84;;;16.39;64.96
73267;BME280;61495;53.400;7.608;2023-05-24T12:57:45;102391.00;;;16.29;64.21
73267;BME280;61495;53.400;7.608;2023-05-24T13:00:17;102399.72;;;16.18;64.26
73267;BME280;61495;53.400;7.608;2023-05-24T13:02:43;102398.03;;;16.17;65.17
73267;BME280;61495;53.400;7.608;2023-05-24T13:05:09;102397.63;;;16.20;64.38
73267;BME280;61495;53.400;7.608;2023-05-24T13:07:35;102405.94;;;16.25;65.04
73267;BME280;61495;53.400;7.608;2023-05-24T13:10:00;102394.31;;;16.18;64.11
73267;BME280;61495;53.400;7.608;2023-05-24T13:12:26;102404.50;;;16.29;64.87
73267;BME280;61495;53.400;7.608;2023-05-24T13:14:53;102400.53;;;16.25;63.76